Time;durP1;ratioP1;P1;durP2;ratioP2;P2;SDS_P1;SDS_P2;PMS_P1;PMS_P2;Temp;Humidity;BMP_temperature;BMP_pressure;BME280_temperature;BME280_humidity;BME280_pressure;Samples;Min_cycle;Max_cycle;Signal;HPM_P1;HPM_P2
2023/08/07 00:02:38;;;;;;;5.80;1.40;;;;;;;16.87;78.90;97742.29;223381;181;139442;-63
2023/08/07 00:07:41;;;;;;;5.90;1.70;;;;;;;16.84;78.96;97737.91;223486;182;136596;-64
2023/08/07 00:12:44;;;;;;;2.80;1.30;;;;;;;16.75;79.07;97729.19;223410;181;147978;-62
2023/08/07 00:17:48;;;;;;;3.30;1.40;;;;;;;16.73;79.24;97728.09;223392;181;139373;-62
2023/08/07 00:22:51;;;;;;;9.10;1.60;;;;;;;16.73;79.23;97719.89;223424;181;138088;-64
2023/08/07 00:27:54;;;;;;;2.60;1.80;;;;;;;16.77;79.20;97714.29;223424;181;148075;-65
2023/08/07 00:32:58;;;;;;;2.00;1.80;;;;;;;16.75;79.16;97717.58;223240;181;138955;-64
2023/08/07 00:38:03;;;;;;;2.10;1.50;;;;;;;16.75;79.22;97715.02;223404;181;137708;-62
2023/08/07 00:43:07;;;;;;;3.20;1.70;;;;;;;16.69;79.27;97713.55;223451;181;147913;-65
2023/08/07 00:48:11;;;;;;;3.00;1.80;;;;;;;16.65;79.29;97713.27;223407;181;138655;-66
2023/08/07 00:53:14;;;;;;;1.90;1.70;;;;;;;16.62;79.64;97711.23;223442;181;136966;-66
2023/08/07 00:58:18;;;;;;;3.90;1.60;;;;;;;16.63;79.76;97707.76;223465;181;147748;-62
2023/08/07 01:03:21;;;;;;;2.00;1.30;;;;;;;16.62;79.59;97706.77;223328;182;139545;-65
2023/08/07 01:08:25;;;;;;;2.70;1.70;;;;;;;16.68;79.68;97706.84;223449;181;137954;-61
2023/08/07 01:13:59;;;;;;;3.80;1.80;;;;;;;16.73;79.22;97704.63;223415;182;147719;-62
2023/08/07 01:19:13;;;;;;;2.10;1.60;;;;;;;16.71;79.13;97705.72;223415;181;138923;-61
2023/08/07 01:24:16;;;;;;;1.80;1.30;;;;;;;16.69;79.09;97706.70;223307;182;139671;-61
2023/08/07 01:29:32;;;;;;;2.60;1.80;;;;;;;16.62;79.09;97711.39;223418;181;147667;-61
2023/08/07 01:34:39;;;;;;;2.10;1.50;;;;;;;16.58;79.31;97713.80;223468;181;138591;-62
2023/08/07 01:39:45;;;;;;;3.90;1.70;;;;;;;16.61;79.53;97714.38;223410;181;136533;-60
2023/08/07 01:44:48;;;;;;;3.50;1.70;;;;;;;16.60;79.40;97714.37;223352;181;147801;-60
2023/08/07 01:49:53;;;;;;;2.30;1.70;;;;;;;16.63;79.56;97714.35;223480;181;139561;-61
2023/08/07 01:54:56;;;;;;;3.80;1.60;;;;;;;16.67;79.35;97708.04;223474;181;139430;-61
2023/08/07 02:00:03;;;;;;;3.50;2.10;;;;;;;16.69;79.19;97713.85;223326;181;147754;-61
2023/08/07 02:05:19;;;;;;;3.20;2.30;;;;;;;16.66;79.15;97719.08;223426;181;140680;-61
2023/08/07 02:10:23;;;;;;;4.30;2.10;;;;;;;16.65;79.37;97715.74;223450;181;137477;-62
2023/08/07 02:15:26;;;;;;;6.20;2.40;;;;;;;16.68;79.25;97715.92;223362;181;147660;-62
2023/08/07 02:20:29;;;;;;;3.70;2.30;;;;;;;16.69;79.20;97725.00;223364;181;138886;-61
2023/08/07 02:25:32;;;;;;;4.30;2.80;;;;;;;16.70;79.29;97727.02;223387;181;138342;-63
2023/08/07 02:30:35;;;;;;;2.90;2.70;;;;;;;16.72;79.22;97727.66;223376;181;148753;-61
2023/08/07 02:35:38;;;;;;;5.60;2.00;;;;;;;16.71;79.14;97725.11;223337;181;139083;-62
2023/08/07 02:40:41;;;;;;;2.50;1.70;;;;;;;16.68;79.18;97721.75;223293;181;137410;-62
2023/08/07 02:45:44;;;;;;;4.70;1.90;;;;;;;16.64;79.26;97727.67;223335;181;147408;-62
2023/08/07 02:50:50;;;;;;;2.50;1.80;;;;;;;16.68;79.18;97725.06;223428;181;141148;-62
2023/08/07 02:55:53;;;;;;;;;;;;;;;16.67;78.82;97721.44;223452;181;136999;-63
2023/08/07 03:00:56;;;;;;;3.50;2.00;;;;;;;16.62;79.01;97726.42;223507;181;147983;-61
2023/08/07 03:05:59;;;;;;;2.10;1.50;;;;;;;16.61;79.17;97726.02;223422;181;139587;-64
2023/08/07 03:11:03;;;;;;;4.80;2.00;;;;;;;16.59;78.99;97732.56;223357;182;138593;-63
2023/08/07 03:16:07;;;;;;;2.90;1.80;;;;;;;16.64;79.13;97735.44;223470;181;147708;-61
2023/08/07 03:21:11;;;;;;;3.30;2.00;;;;;;;16.68;79.09;97734.77;223355;181;139677;-61
2023/08/07 03:26:15;;;;;;;2.40;1.80;;;;;;;16.66;78.89;97737.25;223446;181;137544;-61
2023/08/07 03:31:23;;;;;;;2.40;1.50;;;;;;;16.67;79.08;97745.08;223410;181;148125;-61
2023/08/07 03:36:26;;;;;;;3.20;1.90;;;;;;;16.75;78.97;97747.21;223414;181;138917;-61
2023/08/07 03:41:29;;;;;;;4.30;1.80;;;;;;;16.83;78.72;97749.13;223451;182;136643;-61
2023/08/07 03:46:33;;;;;;;4.60;2.00;;;;;;;16.83;78.63;97747.71;223338;181;148076;-61
2023/08/07 03:51:36;;;;;;;2.70;1.90;;;;;;;16.83;78.52;97760.81;223512;181;138793;-62
2023/08/07 03:56:40;;;;;;;5.60;1.50;;;;;;;16.84;78.59;97765.11;223385;181;138214;-65
2023/08/07 04:01:43;;;;;;;2.00;1.60;;;;;;;16.85;78.57;97770.02;223497;181;147399;-63
2023/08/07 04:06:47;;;;;;;3.20;1.70;;;;;;;16.86;78.73;97775.27;223327;181;138967;-65
2023/08/07 04:11:50;;;;;;;2.90;1.70;;;;;;;16.90;78.59;97776.88;223444;181;136859;-60
2023/08/07 04:16:53;;;;;;;6.60;1.90;;;;;;;16.88;78.78;97776.67;223390;182;148604;-60
2023/08/07 04:21:57;;;;;;;3.80;1.70;;;;;;;16.88;78.71;97783.40;223403;181;139327;-61
2023/08/07 04:27:00;;;;;;;4.50;1.80;;;;;;;16.90;78.90;97782.83;223420;181;138083;-60
2023/08/07 04:32:04;;;;;;;3.30;1.80;;;;;;;16.92;78.82;97778.30;223354;181;147908;-63
2023/08/07 04:37:07;;;;;;;7.70;2.00;;;;;;;16.93;78.84;97781.52;223437;182;139873;-62
2023/08/07 04:42:10;;;;;;;1.70;1.20;;;;;;;16.93;78.92;97779.87;223471;181;136460;-61
2023/08/07 04:47:13;;;;;;;2.60;1.50;;;;;;;16.93;78.93;97779.40;223382;181;147282;-62
2023/08/07 04:52:16;;;;;;;38.00;31.20;;;;;;;17.01;79.02;97781.97;223407;177;140595;-61
2023/08/07 04:57:28;;;;;;;3.00;1.80;;;;;;;17.03;79.02;97785.65;223396;182;139646;-61
2023/08/07 05:02:31;;;;;;;10.20;7.70;;;;;;;16.99;78.93;97783.91;223393;181;148244;-61
2023/08/07 05:07:35;;;;;;;4.10;1.50;;;;;;;17.03;79.16;97789.27;223475;182;139701;-61
2023/08/07 05:12:38;;;;;;;5.30;1.00;;;;;;;17.08;78.82;97790.96;223414;181;137451;-62
2023/08/07 05:17:41;;;;;;;3.80;1.00;;;;;;;17.10;78.29;97790.44;223441;181;147853;-60
2023/08/07 05:22:44;;;;;;;4.40;0.80;;;;;;;17.07;78.27;97792.09;223417;181;138901;-62
2023/08/07 05:27:47;;;;;;;3.30;0.80;;;;;;;17.04;78.20;97797.86;223460;181;138976;-65
2023/08/07 05:32:50;;;;;;;1.20;1.10;;;;;;;17.06;77.84;97802.38;223443;181;147653;-61
2023/08/07 05:37:54;;;;;;;27.00;21.50;;;;;;;17.08;77.92;97803.00;223547;181;140832;-61
2023/08/07 05:42:57;;;;;;;2.00;1.30;;;;;;;17.13;77.75;97807.88;223364;181;138318;-61
2023/08/07 05:48:00;;;;;;;24.00;15.30;;;;;;;17.16;77.69;97818.86;223404;181;147765;-61
2023/08/07 05:53:04;;;;;;;1.30;0.80;;;;;;;17.24;77.28;97823.14;223393;181;138995;-64
2023/08/07 05:58:08;;;;;;;2.50;0.70;;;;;;;17.28;76.84;97829.77;223522;178;137523;-63
2023/08/07 06:03:11;;;;;;;1.70;0.70;;;;;;;17.34;76.36;97827.69;223337;181;148180;-62
2023/08/07 06:08:14;;;;;;;2.40;0.50;;;;;;;17.33;75.54;97837.47;223388;181;138665;-65
2023/08/07 06:13:17;;;;;;;0.70;0.30;;;;;;;17.25;75.52;97847.02;223565;182;138052;-64
2023/08/07 06:18:34;;;;;;;1.90;0.50;;;;;;;17.25;75.20;97855.15;223348;181;147317;-66
2023/08/07 06:23:37;;;;;;;0.80;0.40;;;;;;;17.20;75.22;97860.17;223221;181;139903;-67
2023/08/07 06:28:41;;;;;;;60.60;49.00;;;;;;;17.22;75.46;97862.44;223317;181;137588;-67
2023/08/07 06:33:44;;;;;;;0.80;0.80;;;;;;;17.21;75.01;97859.98;223317;181;147848;-63
2023/08/07 06:38:51;;;;;;;1.80;0.50;;;;;;;17.17;74.86;97864.64;223227;181;139143;-61
2023/08/07 06:43:56;;;;;;;1.60;0.70;;;;;;;17.17;75.24;97864.74;223286;181;137830;-67
2023/08/07 09:05:31;;;;;;;1.60;0.50;;;;;;;18.14;68.57;97941.75;221854;193;666755;-65
2023/08/07 09:10:35;;;;;;;0.60;0.40;;;;;;;18.12;67.69;97947.51;223348;183;137205;-65
2023/08/07 09:15:39;;;;;;;1.20;0.40;;;;;;;18.07;67.88;97945.73;223372;182;144506;-66
2023/08/07 09:20:43;;;;;;;3.10;0.50;;;;;;;18.07;67.72;97945.86;223199;183;139567;-63
2023/08/07 09:25:46;;;;;;;3.20;0.30;;;;;;;18.13;68.04;97946.34;223301;182;136888;-65
2023/08/07 09:30:52;;;;;;;0.80;0.30;;;;;;;18.20;67.38;97950.39;223245;183;144566;-64
2023/08/07 09:35:58;;;;;;;0.50;0.40;;;;;;;18.21;67.41;97953.66;223204;183;139064;-61
2023/08/07 09:41:03;;;;;;;1.60;0.50;;;;;;;18.24;67.45;97956.25;223273;183;137167;-64
2023/08/07 09:46:07;;;;;;;0.50;0.40;;;;;;;18.27;67.29;97957.15;223262;183;144067;-66
2023/08/07 09:51:11;;;;;;;1.60;0.50;;;;;;;18.26;67.42;97956.89;223066;183;139100;-65
2023/08/07 09:56:14;;;;;;;1.30;0.60;;;;;;;18.29;67.77;97957.15;223309;183;136741;-64
2023/08/07 10:01:18;;;;;;;1.40;0.50;;;;;;;18.50;67.21;97957.83;223289;182;147037;-63
2023/08/07 10:06:22;;;;;;;5.10;4.60;;;;;;;18.43;66.78;97960.93;223152;182;138623;-62
2023/08/07 10:11:26;;;;;;;1.50;0.60;;;;;;;18.43;67.41;97975.12;223399;182;136693;-63
2023/08/07 10:16:30;;;;;;;1.10;0.30;;;;;;;18.39;68.12;97972.70;223320;183;145778;-63
2023/08/07 10:21:46;;;;;;;0.60;0.50;;;;;;;18.57;68.64;97968.36;223228;182;141340;-62
2023/08/07 10:26:59;;;;;;;3.30;0.90;;;;;;;18.86;67.99;97962.84;223252;183;140073;-60
2023/08/07 10:32:03;;;;;;;0.90;0.60;;;;;;;18.96;66.78;97966.88;223332;183;145697;-62
2023/08/07 10:37:07;;;;;;;4.20;0.80;;;;;;;18.82;66.30;97969.69;223334;183;138903;-63
2023/08/07 10:42:11;;;;;;;0.50;0.40;;;;;;;18.59;66.25;97973.57;223257;183;137235;-63
2023/08/07 10:47:14;;;;;;;0.70;0.50;;;;;;;18.50;66.72;97973.15;223291;183;146346;-63
2023/08/07 10:52:18;;;;;;;1.90;0.50;;;;;;;18.55;67.11;97968.35;223164;182;138618;-64
2023/08/07 10:57:22;;;;;;;1.60;0.30;;;;;;;18.69;67.00;97964.20;223427;181;136693;-62
2023/08/07 11:02:30;;;;;;;4.30;0.50;;;;;;;18.89;67.08;97961.38;223493;181;145859;-64
2023/08/07 11:07:34;;;;;;;0.60;0.30;;;;;;;19.14;66.23;97972.66;223353;182;141330;-63
2023/08/07 11:12:37;;;;;;;4.10;0.50;;;;;;;19.33;65.31;97969.02;223363;181;136372;-61
2023/08/07 11:17:41;;;;;;;1.40;0.50;;;;;;;19.60;64.00;97974.95;223350;181;146039;-61
2023/08/07 11:22:44;;;;;;;0.50;0.30;;;;;;;19.76;63.18;97976.92;223469;181;139390;-62
2023/08/07 11:27:47;;;;;;;4.20;0.80;;;;;;;19.91;62.78;97984.52;223455;181;136331;-62
2023/08/07 11:32:52;;;;;;;4.10;0.30;;;;;;;19.85;62.74;97990.88;223454;181;146176;-62
2023/08/07 11:38:15;;;;;;;0.30;0.30;;;;;;;19.67;62.75;97986.53;223558;181;140068;-61
2023/08/07 11:43:18;;;;;;;1.80;0.60;;;;;;;19.77;63.08;97986.63;223555;181;136991;-62
2023/08/07 11:48:24;;;;;;;3.70;0.60;;;;;;;19.72;62.64;97989.23;223484;181;145540;-60
2023/08/07 11:53:30;;;;;;;1.90;1.10;;;;;;;19.87;63.28;97990.91;223415;181;139433;-61
2023/08/07 11:58:35;;;;;;;1.50;0.70;;;;;;;20.15;63.00;97995.33;223403;181;140469;-60
2023/08/07 12:03:42;;;;;;;1.10;0.70;;;;;;;20.38;62.70;98000.56;223459;181;146387;-60
2023/08/07 12:08:50;;;;;;;2.10;0.60;;;;;;;20.44;61.88;98004.82;223486;181;140586;-59
2023/08/07 12:14:05;;;;;;;1.60;0.60;;;;;;;20.38;61.28;98011.37;223559;181;137249;-60
2023/08/07 12:19:09;;;;;;;0.60;0.60;;;;;;;20.10;61.59;98031.05;223374;181;145961;-59
2023/08/07 12:24:13;;;;;;;3.30;1.00;;;;;;;19.74;61.07;98041.52;223454;181;138738;-59
2023/08/07 12:29:16;;;;;;;2.40;0.90;;;;;;;19.46;62.08;98058.61;223446;181;137284;-59
2023/08/07 12:34:19;;;;;;;1.40;0.90;;;;;;;19.22;63.09;98072.46;223434;181;145661;-59
2023/08/07 12:39:25;;;;;;;1.30;1.20;;;;;;;19.04;64.51;98079.73;223432;180;139470;-62
2023/08/07 12:44:49;;;;;;;3.10;1.20;;;;;;;18.85;65.36;98079.47;223439;181;138744;-63
2023/08/07 12:49:52;;;;;;;2.70;1.30;;;;;;;18.64;66.04;98084.75;223387;181;146401;-64
2023/08/07 12:54:55;;;;;;;2.10;1.10;;;;;;;18.46;66.94;98085.27;223450;179;139586;-63
2023/08/07 12:59:58;;;;;;;1.40;1.30;;;;;;;18.31;67.23;98093.55;223393;181;136928;-63
2023/08/07 13:05:01;;;;;;;3.00;1.30;;;;;;;18.26;67.50;98101.08;223368;182;146082;-60
2023/08/07 13:10:06;;;;;;;1.30;1.20;;;;;;;18.18;68.13;98102.27;223420;180;140487;-64
2023/08/07 13:15:13;;;;;;;4.60;1.60;;;;;;;18.26;69.03;98102.91;223344;181;137695;-63
2023/08/07 13:20:17;;;;;;;4.20;1.40;;;;;;;18.42;69.03;98102.64;223499;181;145896;-63
2023/08/07 13:25:20;;;;;;;4.50;1.50;;;;;;;18.43;67.97;98110.05;223319;181;139103;-64
2023/08/07 13:30:23;;;;;;;3.70;1.80;;;;;;;18.45;67.59;98111.57;223444;181;137951;-65
2023/08/07 13:35:26;;;;;;;4.50;2.60;;;;;;;18.49;67.44;98122.69;223332;182;145645;-65
2023/08/07 13:40:33;;;;;;;5.70;3.00;;;;;;;18.43;67.48;98127.81;223439;181;138829;-61
2023/08/07 13:45:37;;;;;;;5.00;3.00;;;;;;;18.41;67.93;98135.92;223395;182;137497;-62
2023/08/07 13:50:41;;;;;;;5.00;2.80;;;;;;;18.41;67.24;98142.42;223536;181;145715;-62
2023/08/07 13:55:44;;;;;;;4.10;1.80;;;;;;;18.44;66.94;98142.45;223319;181;138694;-63
2023/08/07 14:00:48;;;;;;;3.50;1.70;;;;;;;18.69;65.61;98150.52;223447;181;138063;-64
2023/08/07 14:05:52;;;;;;;2.60;1.50;;;;;;;18.97;63.86;98151.74;223368;181;147955;-62
2023/08/07 14:10:55;;;;;;;2.70;1.70;;;;;;;18.97;63.17;98159.80;223419;181;140519;-64
2023/08/07 14:15:58;;;;;;;5.00;1.90;;;;;;;18.75;63.62;98158.48;223386;181;137089;-63
2023/08/07 14:21:02;;;;;;;3.80;1.80;;;;;;;18.59;64.20;98167.23;223469;181;147649;-63
2023/08/07 14:26:05;;;;;;;3.30;1.80;;;;;;;18.38;63.92;98175.42;223391;181;138819;-62
2023/08/07 14:31:09;;;;;;;3.20;2.00;;;;;;;18.20;64.49;98175.15;223425;180;136880;-62
2023/08/07 14:36:14;;;;;;;4.80;1.50;;;;;;;18.08;65.06;98174.30;223239;181;145743;-62
2023/08/07 14:41:21;;;;;;;2.70;1.60;;;;;;;18.01;66.17;98167.05;223287;181;138604;-60
2023/08/07 14:46:24;;;;;;;3.00;1.70;;;;;;;17.99;66.47;98175.15;223365;181;138671;-62
2023/08/07 14:51:27;;;;;;;3.50;1.90;;;;;;;17.89;66.56;98187.50;223362;181;146312;-63
2023/08/07 14:56:30;;;;;;;3.00;1.80;;;;;;;17.74;66.83;98191.05;223352;181;141068;-61
2023/08/07 15:01:33;;;;;;;2.60;1.70;;;;;;;17.62;67.06;98188.13;223400;181;137480;-63
2023/08/07 15:06:37;;;;;;;2.50;2.00;;;;;;;17.58;67.33;98195.02;223353;181;147891;-60
2023/08/07 15:11:40;;;;;;;3.30;1.90;;;;;;;17.52;67.70;98194.26;223316;181;138671;-65
2023/08/07 15:16:44;;;;;;;3.70;1.90;;;;;;;17.47;68.50;98200.43;223380;181;137687;-64
2023/08/07 15:21:50;;;;;;;16.60;13.30;;;;;;;17.46;68.25;98196.98;223365;181;146044;-64
2023/08/07 15:26:53;;;;;;;4.20;2.40;;;;;;;17.44;68.40;98201.88;223241;181;138608;-63
2023/08/07 15:31:56;;;;;;;3.30;2.10;;;;;;;17.33;68.47;98205.15;223278;181;139592;-62
2023/08/07 15:37:00;;;;;;;2.80;1.80;;;;;;;17.26;68.80;98210.71;223224;181;146015;-62
2023/08/07 15:42:03;;;;;;;3.10;1.70;;;;;;;17.23;69.33;98217.05;223227;182;141906;-60
2023/08/07 15:47:07;;;;;;;6.10;2.20;;;;;;;17.24;69.26;98224.14;223165;181;137971;-61
2023/08/07 15:52:10;;;;;;;31.90;27.60;;;;;;;17.26;69.40;98229.34;223350;181;146381;-62
2023/08/07 15:57:13;;;;;;;9.10;6.30;;;;;;;17.27;69.50;98234.09;223193;181;141233;-61
2023/08/07 16:02:16;;;;;;;4.50;2.00;;;;;;;17.30;69.26;98239.17;223259;182;137500;-61
2023/08/07 16:07:20;;;;;;;3.70;2.00;;;;;;;17.34;69.41;98243.44;223305;181;145950;-62
2023/08/07 16:12:37;;;;;;;4.00;1.80;;;;;;;17.36;69.56;98251.86;223161;180;138919;-61
2023/08/07 16:17:40;;;;;;;5.20;1.70;;;;;;;17.37;69.78;98252.81;223261;181;137338;-60
2023/08/07 16:22:44;;;;;;;3.00;1.90;;;;;;;17.33;69.58;98258.46;223212;181;147201;-63
2023/08/07 16:27:49;;;;;;;10.00;6.50;;;;;;;17.34;69.76;98261.73;223291;181;139568;-61
2023/08/07 16:32:53;;;;;;;4.50;2.20;;;;;;;17.32;69.89;98265.48;223394;181;138193;-60
2023/08/07 16:37:56;;;;;;;3.20;1.80;;;;;;;17.34;69.94;98264.41;223312;181;146127;-62
2023/08/07 16:42:59;;;;;;;4.50;1.60;;;;;;;17.37;69.12;98269.86;223240;181;138779;-61
2023/08/07 16:48:03;;;;;;;5.40;3.50;;;;;;;17.35;68.47;98270.55;223224;181;137960;-61
2023/08/07 16:53:06;;;;;;;3.00;2.20;;;;;;;17.33;68.08;98284.96;223169;181;147984;-64
2023/08/07 16:58:10;;;;;;;2.70;1.80;;;;;;;17.32;67.68;98284.81;223390;181;139356;-66
2023/08/07 17:03:14;;;;;;;3.30;1.50;;;;;;;17.34;67.84;98283.55;223362;181;137414;-66
2023/08/07 17:08:18;;;;;;;25.10;14.60;;;;;;;17.35;67.85;98289.61;223458;181;146984;-63
2023/08/07 17:13:23;;;;;;;2.80;1.60;;;;;;;17.35;68.24;98293.71;223339;181;139456;-61
2023/08/07 17:18:26;;;;;;;6.40;1.60;;;;;;;17.32;68.45;98289.39;223422;181;138567;-62
2023/08/07 17:23:30;;;;;;;5.20;1.90;;;;;;;17.34;68.44;98288.57;223295;181;146295;-64
2023/08/07 17:28:33;;;;;;;3.40;2.00;;;;;;;17.34;68.10;98301.51;223423;181;138722;-64
2023/08/07 17:33:37;;;;;;;3.00;1.70;;;;;;;17.26;68.27;98303.77;223365;181;137688;-64
2023/08/07 17:38:40;;;;;;;4.60;1.60;;;;;;;17.21;68.40;98311.36;223383;181;149053;-64
2023/08/07 17:43:43;;;;;;;3.00;1.80;;;;;;;17.19;68.71;98317.18;223213;181;138949;-67
2023/08/07 17:48:46;;;;;;;3.20;2.00;;;;;;;17.21;68.90;98322.85;223257;181;137615;-63
2023/08/07 17:53:50;;;;;;;42.00;35.50;;;;;;;17.20;69.06;98326.91;223441;182;147988;-61
2023/08/07 17:59:05;;;;;;;7.00;3.20;;;;;;;17.19;69.40;98325.95;223293;181;139005;-64
2023/08/07 18:04:09;;;;;;;4.00;2.10;;;;;;;17.11;69.58;98325.34;223351;181;137531;-63
2023/08/07 18:09:12;;;;;;;4.20;2.40;;;;;;;17.06;69.84;98323.12;223315;181;149492;-62
2023/08/07 18:14:15;;;;;;;4.40;2.80;;;;;;;17.06;70.12;98338.41;223406;181;139733;-61
2023/08/07 18:19:18;;;;;;;20.50;17.80;;;;;;;17.13;70.53;98343.41;223373;181;138128;-63
2023/08/07 18:24:22;;;;;;;5.00;2.60;;;;;;;17.05;70.67;98354.42;223342;181;147915;-59
2023/08/07 18:29:25;;;;;;;4.30;1.90;;;;;;;16.99;71.05;98359.85;223221;181;139109;-63
2023/08/07 18:34:29;;;;;;;2.30;1.80;;;;;;;16.98;71.25;98358.16;223414;181;138431;-63
2023/08/07 18:39:32;;;;;;;4.60;2.20;;;;;;;16.95;71.59;98371.96;223387;181;148470;-64
2023/08/07 18:44:35;;;;;;;3.40;1.90;;;;;;;16.92;71.76;98377.62;223417;181;139693;-63
2023/08/07 18:49:39;;;;;;;4.20;2.40;;;;;;;16.88;71.86;98377.98;223329;181;137438;-63
2023/08/07 18:54:42;;;;;;;4.50;1.90;;;;;;;16.93;72.01;98383.46;223523;181;147287;-63
2023/08/07 18:59:45;;;;;;;5.90;2.30;;;;;;;16.97;72.13;98387.16;223388;181;138964;-63
2023/08/07 19:04:48;;;;;;;3.70;1.90;;;;;;;16.99;72.07;98393.15;223453;181;137949;-64
2023/08/07 19:09:51;;;;;;;31.00;23.00;;;;;;;16.96;72.35;98394.92;223334;181;147578;-64
2023/08/07 19:14:54;;;;;;;4.80;2.40;;;;;;;16.98;72.36;98396.34;223509;181;138941;-64
2023/08/07 19:19:57;;;;;;;2.90;1.80;;;;;;;16.98;72.35;98405.52;223439;181;137355;-63
2023/08/07 19:25:01;;;;;;;23.70;19.90;;;;;;;16.91;72.70;98414.92;223377;181;148588;-63
2023/08/07 19:30:06;;;;;;;2.20;1.90;;;;;;;16.92;72.66;98416.26;223415;181;138847;-63
2023/08/07 19:35:12;;;;;;;3.50;1.70;;;;;;;16.93;72.73;98421.54;223413;181;138202;-65
2023/08/07 19:40:24;;;;;;;3.40;1.70;;;;;;;16.90;72.72;98426.01;223496;181;147790;-65
2023/08/07 19:45:28;;;;;;;2.90;1.80;;;;;;;16.88;72.66;98438.95;223423;181;139152;-68
2023/08/07 19:50:31;;;;;;;2.40;1.60;;;;;;;16.87;72.85;98441.50;223567;181;138066;-63
2023/08/07 19:55:34;;;;;;;2.00;1.40;;;;;;;16.91;72.81;98447.75;223383;180;148021;-61
2023/08/07 20:00:37;;;;;;;2.60;1.80;;;;;;;16.89;72.91;98452.45;223315;181;139160;-62
2023/08/07 20:05:40;;;;;;;2.20;1.60;;;;;;;16.88;73.14;98456.34;223506;181;138066;-61
2023/08/07 20:10:44;;;;;;;2.00;1.50;;;;;;;16.87;73.19;98460.53;223452;181;148072;-61
2023/08/07 20:15:47;;;;;;;2.70;1.40;;;;;;;16.86;73.45;98463.34;223464;181;139191;-63
2023/08/07 20:20:51;;;;;;;1.80;1.50;;;;;;;16.85;73.48;98463.96;223456;181;139053;-65
2023/08/07 20:25:54;;;;;;;1.70;1.40;;;;;;;16.84;73.50;98468.02;223394;181;147419;-64
2023/08/07 20:30:58;;;;;;;4.00;1.30;;;;;;;16.77;73.57;98476.54;223336;181;138637;-63
2023/08/07 20:36:01;;;;;;;1.60;1.30;;;;;;;16.73;73.85;98475.98;223388;181;139544;-60
2023/08/07 20:41:04;;;;;;;2.00;1.30;;;;;;;16.72;73.99;98478.77;223517;182;148161;-63
2023/08/07 20:46:08;;;;;;;2.60;1.10;;;;;;;16.69;73.86;98479.19;223392;181;140716;-61
2023/08/07 20:51:12;;;;;;;3.10;1.30;;;;;;;16.66;73.89;98483.09;223431;181;139604;-64
2023/08/07 20:56:32;;;;;;;1.90;1.30;;;;;;;16.68;73.72;98486.52;223508;181;147643;-62
2023/08/07 21:01:36;;;;;;;4.70;1.70;;;;;;;16.66;73.76;98487.41;223412;181;139598;-66
2023/08/07 21:06:39;;;;;;;2.80;1.20;;;;;;;16.63;73.85;98494.45;223491;182;138210;-65
2023/08/07 21:11:43;;;;;;;3.20;1.00;;;;;;;16.62;73.84;98489.45;223487;181;147229;-64
2023/08/07 21:16:46;;;;;;;2.40;1.10;;;;;;;16.59;73.96;98493.47;223396;181;138583;-65
2023/08/07 21:21:49;;;;;;;1.10;0.90;;;;;;;16.59;73.99;98502.21;223549;181;139942;-62
2023/08/07 21:26:53;;;;;;;2.40;1.00;;;;;;;16.54;74.08;98499.84;223469;181;147401;-61
2023/08/07 21:31:56;;;;;;;2.50;1.00;;;;;;;16.54;74.21;98509.48;223423;181;138999;-64
2023/08/07 21:37:00;;;;;;;2.30;0.80;;;;;;;16.55;74.14;98509.90;223439;181;138000;-64
2023/08/07 21:42:03;;;;;;;2.50;2.00;;;;;;;16.59;74.12;98515.29;223527;181;148583;-61
2023/08/07 21:47:07;;;;;;;2.40;1.00;;;;;;;16.57;73.93;98516.38;223383;181;139840;-64
2023/08/07 21:52:10;;;;;;;1.00;0.70;;;;;;;16.57;73.91;98517.52;223501;181;137519;-66
2023/08/07 21:57:15;;;;;;;1.20;0.90;;;;;;;16.59;73.94;98524.09;223472;181;147595;-62
2023/08/07 22:02:24;;;;;;;2.00;1.10;;;;;;;16.61;73.90;98531.80;223416;182;141162;-63
2023/08/07 22:07:27;;;;;;;2.10;1.20;;;;;;;16.57;74.18;98535.38;223346;182;137719;-67
2023/08/07 22:12:31;;;;;;;2.60;0.90;;;;;;;16.52;74.46;98538.86;223395;181;146562;-66
2023/08/07 22:17:35;;;;;;;1.20;0.90;;;;;;;16.50;74.56;98539.91;223263;181;140004;-66
2023/08/07 22:22:44;;;;;;;1.50;1.10;;;;;;;16.53;74.55;98542.52;223294;181;137945;-69
2023/08/07 22:27:47;;;;;;;1.80;0.90;;;;;;;16.55;74.57;98542.67;223364;181;148341;-63
2023/08/07 22:32:51;;;;;;;1.90;0.90;;;;;;;16.57;74.72;98548.47;223388;181;138754;-65
2023/08/07 22:37:54;;;;;;;2.40;0.70;;;;;;;16.51;74.74;98551.27;223370;181;137823;-65
2023/08/07 22:42:57;;;;;;;1.50;0.90;;;;;;;16.51;74.85;98558.12;223383;181;147418;-65
2023/08/07 22:48:02;;;;;;;1.40;0.60;;;;;;;16.54;74.76;98558.18;223498;181;138769;-67
2023/08/07 22:53:06;;;;;;;0.90;0.70;;;;;;;16.55;74.67;98567.42;223432;181;138753;-67
2023/08/07 22:58:09;;;;;;;1.80;0.80;;;;;;;16.50;74.73;98566.07;223507;181;148432;-60
2023/08/07 23:03:12;;;;;;;1.40;0.80;;;;;;;16.49;74.91;98572.35;223436;181;139545;-63
2023/08/07 23:08:15;;;;;;;2.10;0.60;;;;;;;16.46;75.04;98563.87;223436;181;136886;-63
2023/08/07 23:13:19;;;;;;;0.80;0.60;;;;;;;16.43;75.10;98563.54;223515;181;149333;-65
2023/08/07 23:18:23;;;;;;;1.20;0.70;;;;;;;16.42;75.11;98572.24;223439;181;139831;-65
2023/08/07 23:23:27;;;;;;;1.40;0.70;;;;;;;16.40;75.24;98574.39;223472;181;138245;-63
2023/08/07 23:28:30;;;;;;;1.30;0.70;;;;;;;16.42;75.02;98573.72;223348;181;147329;-63
2023/08/07 23:33:33;;;;;;;1.70;0.80;;;;;;;16.41;75.04;98572.34;223394;181;139286;-68
2023/08/07 23:38:37;;;;;;;1.10;0.70;;;;;;;16.39;75.00;98579.91;223497;181;137933;-68
2023/08/07 23:43:40;;;;;;;5.50;0.70;;;;;;;16.33;75.11;98583.64;223389;180;148023;-66
2023/08/07 23:48:43;;;;;;;1.40;0.50;;;;;;;16.32;75.20;98592.33;223414;180;139579;-65
2023/08/07 23:53:46;;;;;;;1.70;0.60;;;;;;;16.32;75.16;98592.80;223530;181;138697;-68
2023/08/07 23:58:49;;;;;;;2.30;0.70;;;;;;;16.27;75.21;98596.91;223411;181;147966;-68
